createdAt,value
2023-04-15T00:02:13.695Z,66.43809
2023-04-15T00:07:15.541Z,67.97438
2023-04-15T00:12:17.378Z,65.66571
2023-04-15T00:17:19.240Z,64.78373
2023-04-15T00:22:20.979Z,65.05579
2023-04-15T00:27:22.699Z,67.34829
2023-04-15T00:32:24.655Z,69.52618
2023-04-15T00:37:26.402Z,70.82693
2023-04-15T00:42:27.964Z,70.62091
2023-04-15T00:47:29.883Z,68.25076
2023-04-15T00:52:31.663Z,67.3222
2023-04-15T00:57:33.294Z,66.27542
2023-04-15T01:02:35.031Z,65.89123
2023-04-15T01:07:36.986Z,64.76238
2023-04-15T01:12:38.660Z,67.77748
2023-04-15T01:17:40.327Z,69.98485
2023-04-15T01:22:42.138Z,71.33253
2023-04-15T01:27:43.747Z,75.40969
2023-04-15T01:32:45.230Z,77.12568
2023-04-15T01:37:46.933Z,81.44727
2023-04-15T01:42:48.444Z,81.80616
2023-04-15T01:47:49.813Z,86.03673
2023-04-15T01:52:51.427Z,84.97982
2023-04-15T01:57:52.887Z,87.09853
2023-04-15T02:02:54.306Z,88.14885
2023-04-15T02:07:55.869Z,91.89909
2023-04-15T02:12:57.147Z,91.77581
2023-04-15T02:17:58.711Z,95.97437
2023-04-15T02:23:00.124Z,94.85712
2023-04-15T02:28:01.849Z,90.77373
2023-04-15T02:33:03.456Z,94.82576
2023-04-15T02:38:05.119Z,100
2023-04-15T02:43:06.645Z,100
2023-04-15T02:48:08.362Z,100
2023-04-15T02:53:10.271Z,100
2023-04-15T02:58:11.819Z,100
2023-04-15T03:03:13.602Z,100
2023-04-15T03:08:15.383Z,100
2023-04-15T03:13:16.830Z,100
2023-04-15T03:18:18.387Z,100
2023-04-15T03:23:20.110Z,100
2023-04-15T03:28:21.952Z,100
2023-04-15T03:33:23.480Z,100
2023-04-15T03:38:25.149Z,100
2023-04-15T03:43:26.815Z,100
2023-04-15T03:48:28.305Z,100
2023-04-15T03:53:29.990Z,100
2023-04-15T03:58:31.538Z,100
2023-04-15T04:03:33.522Z,100
2023-04-15T04:08:35.341Z,100
2023-04-15T04:13:37.140Z,100
2023-04-15T04:18:38.727Z,100
2023-04-15T04:23:40.502Z,100
2023-04-15T04:28:42.219Z,100
2023-04-15T04:33:43.860Z,100
2023-04-15T04:38:45.390Z,100
2023-04-15T04:43:46.698Z,100
2023-04-15T04:48:47.945Z,100
2023-04-15T04:53:49.462Z,100
2023-04-15T04:58:50.698Z,100
2023-04-15T05:03:52.004Z,100
2023-04-15T05:08:53.411Z,100
2023-04-15T05:13:54.641Z,100
2023-04-15T05:18:56.111Z,100
2023-04-15T05:23:57.633Z,100
2023-04-15T05:28:59.108Z,100
2023-04-15T05:34:01.073Z,100
2023-04-15T05:39:03.063Z,100
2023-04-15T05:44:04.980Z,100
2023-04-15T05:49:06.723Z,100
2023-04-15T05:54:08.433Z,100
2023-04-15T05:59:09.780Z,100
2023-04-15T06:04:11.176Z,100
2023-04-15T06:09:12.668Z,100
2023-04-15T06:14:14.120Z,100
2023-04-15T06:19:15.428Z,100
2023-04-15T06:24:16.942Z,100
2023-04-15T06:29:18.256Z,100
2023-04-15T06:34:19.602Z,97.47086
2023-04-15T06:39:21.597Z,100
2023-04-15T06:44:22.847Z,89.52259
2023-04-15T06:49:24.202Z,88.47942
2023-04-15T06:54:25.799Z,89.51914
2023-04-15T06:59:27.212Z,84.87751
2023-04-15T07:04:28.497Z,84.03416
2023-04-15T07:09:29.930Z,87.35955
2023-04-15T07:14:31.228Z,87.173
2023-04-15T07:19:32.525Z,86.49704
2023-04-15T07:24:33.996Z,80.74664
2023-04-15T07:29:35.506Z,86.74554
2023-04-15T07:34:36.751Z,84.20512
2023-04-15T07:39:38.172Z,80.5394
2023-04-15T07:44:39.526Z,73.90241
2023-04-15T07:49:41.028Z,72.6694
2023-04-15T07:54:42.424Z,72.61469
2023-04-15T07:59:43.909Z,68.62279
2023-04-15T08:04:45.282Z,66.90078
2023-04-15T08:09:46.829Z,62.2567
2023-04-15T08:14:48.081Z,60.61443
2023-04-15T08:19:49.796Z,57.79877
2023-04-15T08:24:51.156Z,54.02217
2023-04-15T08:29:52.669Z,53.40101
2023-04-15T08:34:53.946Z,54.03256
2023-04-15T08:39:55.317Z,53.01251
2023-04-15T08:44:56.580Z,48.90258
2023-04-15T08:49:57.889Z,51.13276
2023-04-15T08:54:59.684Z,50.60083
2023-04-15T09:00:02.910Z,42.00042
2023-04-15T09:05:05.376Z,40.96967
2023-04-15T09:10:07.304Z,40.57
2023-04-15T09:15:08.912Z,39.62398
2023-04-15T09:20:10.495Z,40.16604
2023-04-15T09:25:11.821Z,36.07194
2023-04-15T09:30:13.081Z,36.51939
2023-04-15T09:35:14.319Z,38.00584
2023-04-15T09:40:16.031Z,37.38204
2023-04-15T09:45:17.427Z,37.27495
2023-04-15T09:50:18.742Z,33.86739
2023-04-15T09:55:20.136Z,27.95083
2023-04-15T10:00:21.558Z,31.41734
2023-04-15T10:05:22.809Z,29.35452
2023-04-15T10:10:24.213Z,28.09626
2023-04-15T10:15:25.468Z,24.73693
2023-04-15T10:20:27.288Z,24.76197
2023-04-15T10:25:28.894Z,24.85532
2023-04-15T10:30:30.170Z,26.10322
2023-04-15T10:35:31.432Z,23.75124
2023-04-15T10:40:32.783Z,23.30516
2023-04-15T10:53:21.811Z,25.50147
2023-04-15T10:58:23.310Z,24.57809
2023-04-15T11:03:24.666Z,22.31398
2023-04-15T11:08:26.285Z,21.9317
2023-04-15T11:13:27.682Z,21.95342
2023-04-15T11:18:28.724Z,23.39287
2023-04-15T11:23:30.205Z,24.41459
2023-04-15T11:28:31.567Z,22.38449
2023-04-15T11:33:32.946Z,21.51392
2023-04-15T11:38:34.575Z,22.36874
2023-04-15T11:43:35.885Z,22.99215
2023-04-15T11:48:37.512Z,24.86401
2023-04-15T11:53:38.907Z,23.68596
2023-04-15T11:58:40.268Z,23.77299
2023-04-15T12:03:41.885Z,25.61643
2023-04-15T12:08:43.760Z,25.84282
2023-04-15T12:13:45.245Z,24.38522
2023-04-15T12:18:46.846Z,25.36502
2023-04-15T12:23:48.141Z,24.74414
2023-04-15T12:28:49.648Z,25.30981
2023-04-15T12:33:51.158Z,25.13928
2023-04-15T12:38:52.691Z,25.14854
2023-04-15T12:43:53.973Z,25.99828
2023-04-15T12:48:55.299Z,25.93897
2023-04-15T12:53:56.683Z,26.25891
2023-04-15T12:58:57.948Z,26.87936
2023-04-15T13:03:59.351Z,27.37389
2023-04-15T13:09:00.864Z,27.53337
2023-04-15T13:14:02.323Z,27.94468
2023-04-15T13:19:03.943Z,28.08539
2023-04-15T13:24:05.768Z,27.4285
2023-04-15T13:29:07.336Z,27.83305
2023-04-15T13:34:08.718Z,28.17721
2023-04-15T13:39:09.960Z,27.25424
2023-04-15T13:44:11.231Z,28.59888
2023-04-15T13:49:12.689Z,29.36104
2023-04-15T13:54:14.026Z,30.07641
2023-04-15T13:59:15.494Z,29.83116
2023-04-15T14:04:17.158Z,29.53333
2023-04-15T14:09:18.708Z,31.20484
2023-04-15T14:14:20.042Z,32.41119
2023-04-15T14:19:21.446Z,32.33155
2023-04-15T14:24:22.966Z,34.49664
2023-04-15T14:29:24.272Z,35.70713
2023-04-15T14:34:25.658Z,37.11975
2023-04-15T14:39:26.918Z,37.50476
2023-04-15T14:44:28.332Z,37.32857
2023-04-15T14:49:29.612Z,37.16282
2023-04-15T14:54:31.166Z,37.70247
2023-04-15T14:59:32.586Z,39.40436
2023-04-15T15:04:33.989Z,38.1402
2023-04-15T15:09:35.837Z,40.43375
2023-04-15T15:14:37.188Z,41.52839
2023-04-15T15:19:38.784Z,41.60242
2023-04-15T15:24:40.420Z,44.02624
2023-04-15T15:29:41.752Z,44.27089
2023-04-15T15:34:43.341Z,45.75914
2023-04-15T15:39:44.635Z,45.83962
2023-04-15T15:44:45.955Z,47.24925
2023-04-15T15:49:47.352Z,46.87076
2023-04-15T15:54:48.844Z,47.15171
2023-04-15T15:59:53.095Z,49.22708
2023-04-15T16:04:59.040Z,50.17487
2023-04-15T16:10:00.539Z,50.26945
2023-04-15T16:15:01.853Z,52.22768
2023-04-15T16:20:03.546Z,52.81419
2023-04-15T16:25:05.129Z,54.52872
2023-04-15T16:30:06.447Z,57.08835
2023-04-15T16:35:08.033Z,56.20041
2023-04-15T16:40:09.388Z,56.03015
2023-04-15T16:45:10.768Z,57.27923
2023-04-15T16:50:12.147Z,57.28669
2023-04-15T16:55:13.420Z,57.60129
2023-04-15T17:00:14.844Z,57.0861
2023-04-15T17:05:16.534Z,57.3627
2023-04-15T17:10:18.196Z,56.6377
2023-04-15T17:15:19.778Z,59.79618
2023-04-15T17:20:21.431Z,57.83824
2023-04-15T17:25:23.212Z,58.30724
2023-04-15T17:30:24.611Z,60.66367
2023-04-15T17:35:26.265Z,59.8679
2023-04-15T17:40:27.753Z,60.02435
2023-04-15T17:45:29.165Z,60.13483
2023-04-15T17:50:30.432Z,59.43247
2023-04-15T17:55:31.968Z,60.21098
2023-04-15T18:00:33.301Z,61.58941
2023-04-15T18:05:34.889Z,60.69908
2023-04-15T18:10:36.160Z,59.73819
2023-04-15T18:15:37.438Z,61.68153
2023-04-15T18:20:38.880Z,62.74368
2023-04-15T18:25:40.708Z,64.2325
2023-04-15T18:30:42.310Z,64.05
2023-04-15T18:35:43.692Z,62.21913
2023-04-15T18:40:45.280Z,61.72182
2023-04-15T18:45:46.723Z,65.00787
2023-04-15T18:50:48.329Z,65.96842
2023-04-15T18:55:49.919Z,64.33223
2023-04-15T19:00:51.450Z,64.11727
2023-04-15T19:05:52.995Z,68.97147
2023-04-15T19:10:54.600Z,75.48808
2023-04-15T19:15:56.216Z,76.37745
2023-04-15T19:20:57.866Z,72.41127
2023-04-15T19:25:59.566Z,74.07546
2023-04-15T19:31:01.185Z,72.32546
2023-04-15T19:36:02.801Z,74.79215
2023-04-15T19:41:04.307Z,73.11394
2023-04-15T19:46:05.629Z,70.61441
2023-04-15T19:51:07.466Z,75.8048
2023-04-15T19:56:09.373Z,78.18399
2023-04-15T20:01:10.883Z,73.20204
2023-04-15T20:06:12.559Z,74.57383
2023-04-15T20:11:15.108Z,75.05481
2023-04-15T20:16:16.737Z,75.36863
2023-04-15T20:21:18.113Z,73.45681
2023-04-15T20:26:19.403Z,77.52202
2023-04-15T20:31:21.062Z,74.45421
2023-04-15T20:36:22.753Z,73.80313
2023-04-15T20:41:24.358Z,75.70216
2023-04-15T20:46:27.327Z,75.96494
2023-04-15T20:51:29.150Z,76.54592
2023-04-15T20:56:30.579Z,76.94164
2023-04-15T21:01:31.865Z,76.77305
2023-04-15T21:06:33.258Z,76.93351
2023-04-15T21:11:46.387Z,76.58707
2023-04-15T21:16:58.997Z,77.43948
2023-04-15T21:22:00.556Z,79.96256
2023-04-15T21:27:02.283Z,80.43862
2023-04-15T21:32:03.932Z,77.5073
2023-04-15T21:37:05.545Z,79.64527
2023-04-15T21:42:07.183Z,81.68204
2023-04-15T21:47:08.858Z,89.70522
2023-04-15T21:52:10.778Z,84.28972
2023-04-15T21:57:12.398Z,80.06988
2023-04-15T22:02:14.059Z,77.68377
2023-04-15T22:07:15.748Z,73.45797
2023-04-15T22:12:17.350Z,73.19266
2023-04-15T22:17:19.026Z,73.63933
2023-04-15T22:22:20.655Z,73.31893
2023-04-15T22:27:28.000Z,71.98173
2023-04-15T22:32:29.290Z,73.28598
2023-04-15T22:37:30.605Z,72.28372
2023-04-15T22:42:32.188Z,75.79531
2023-04-15T22:47:33.745Z,75.586
2023-04-15T22:52:35.154Z,81.53614
2023-04-15T22:57:36.369Z,80.54174
2023-04-15T23:02:37.857Z,78.51715
2023-04-15T23:07:39.340Z,83.3049
2023-04-15T23:12:40.792Z,84.21426
2023-04-15T23:17:42.135Z,81.62114
2023-04-15T23:22:43.664Z,84.6298
2023-04-15T23:27:44.961Z,85.58775
2023-04-15T23:32:46.508Z,85.81836
2023-04-15T23:37:47.859Z,90.31507
2023-04-15T23:42:49.358Z,90.47716
2023-04-15T23:47:50.949Z,90.03635
2023-04-15T23:52:52.342Z,91.39615
2023-04-15T23:57:53.825Z,94.74328
